Aérodrome :
LOGIN :

S'inscrire | Disclaimer

   EN    FR    IT 

 










Légende :    VFR   VFR Marginal   IFR   IFR Intensif   IFR Très Intensif
Visi : 
Plafond : 
>= 8 km
>= 3000ft
5 à 8 km
1000 à 3000 ft
1500m à 5 km
500 à 1000 ft
800 à 1500m
200 à 500 ft
< 800m
< 200 ft
Symboles :   Orages  Brouillard  Fortes neiges  Fortes précipitations  Vent > 20 kt
SIGMETs :   Divers  Orages  Givrage  Turbulence  Onde Orograph.  Cendres Volcan.







- Altitude de l'aérodrome : 359 ft
- Code IATA : BVA
- Voir les cartes d'approche


LFOB - Beauvais

DERNIER METAR :
  • 230000Z AUTO 27005KT 9999 FEW019 SCT027 BKN056 10/09 Q1021 TEMPO 4000 RA BKN008 BKN030

METARs EXPIRÉS :
  • 222330Z AUTO 27005KT 9999 FEW008 BKN020 BKN025 10/09 Q1020 TEMPO 4000 RA BKN008 BKN030
  • 222300Z AUTO 25006KT 9999 -RA BKN019/// BKN028/// BKN048/// ///TCU 10/09 Q1020 TEMPO 4000 RA BKN008 BKN030
  • 222230Z AUTO 25009KT 9999 FEW015/// BKN020/// BKN030/// ///TCU 10/09 Q1020 TEMPO 4000 RA BKN008 BKN030
  • 222200Z AUTO 25009KT 9999 FEW020/// SCT031/// BKN050/// ///TCU 10/09 Q1020 BECMG BKN030
  • 222130Z AUTO 25008KT 9999 -RA FEW027 BKN060 OVC072 10/09 Q1020 NOSIG

TAF TAF LFOB
Valide du 23 à 00h jusqu'au 24 à 00h UTC


222300Z 2300/2324 25007KT 9999 BKN030
TEMPO 2300/2315 4000 RA BKN008 BKN030
FM231500 22010KT 9999 OVC008
TEMPO 2315/2324 2000 DZRA OVC004
ATIS : +33 3 44 11 49 28
Pas de NOTAMs connus pour ce terrain.
1 SIGMET publié pour la FIR Paris (LFFF) :
 
Turbulence forte
LFFF SIGMET 6 VALID 222300/230300 LFPW
LFFF PARIS FIR/UIR SEV TURB FCST E OF LINE N5045 E00315 - N4745 E00445 FL220/320 MOV E 15KT NC=



MET'MAP, la Météo Aéronautique d'un coup d'oeil ! - Copyright ORBIFLY Décembre 2007 - Disclaimer

ORBIFLY MET'MAP TEAM :

Programmation & Développement : Alexandra Zaïnal
Conception & Développement : Baudouin d'Aumeries
Co-Programmation & Développement : Marc-Olivier Méhu
Soutien technique & logistique : Manuel Goepfert

Contact : metmap@orbifly.com




SOURCES & CREDITS :

   NOAA